Time;durP1;ratioP1;P1;durP2;ratioP2;P2;SDS_P1;SDS_P2;PMS_P1;PMS_P2;Temp;Humidity;BMP_temperature;BMP_pressure;BME280_temperature;BME280_humidity;BME280_pressure;Samples;Min_cycle;Max_cycle;Signal;HPM_P1;HPM_P2
2022/04/18 00:02:18;;;;;;;7.68;2.42;;;;;;;2.60;39.74;99869.66;5004861;28;20507;-78
2022/04/18 00:04:43;;;;;;;3.25;1.40;;;;;;;2.64;39.90;99870.41;5013577;28;20143;-77
2022/04/18 00:07:07;;;;;;;3.42;1.92;;;;;;;2.64;39.32;99868.63;5020028;28;20131;-72
2022/04/18 00:09:35;;;;;;;2.65;1.40;;;;;;;2.70;39.14;99864.94;5017745;28;20103;-78
2022/04/18 00:12:00;;;;;;;5.65;1.70;;;;;;;2.57;39.42;99884.72;5001306;28;20033;-73
2022/04/18 00:14:25;;;;;;;3.75;1.73;;;;;;;2.50;40.23;99873.53;4999681;28;20045;-74
2022/04/18 00:16:50;;;;;;;8.40;1.98;;;;;;;2.45;40.09;99875.47;5019612;28;20051;-76
2022/04/18 00:19:15;;;;;;;3.25;1.88;;;;;;;2.52;39.91;99875.19;5005786;28;20037;-73
2022/04/18 00:21:39;;;;;;;4.32;1.95;;;;;;;2.44;40.16;99873.75;5019152;28;20037;-78
2022/04/18 00:24:04;;;;;;;2.88;1.90;;;;;;;2.39;40.20;99873.03;5019753;28;20095;-80
2022/04/18 00:26:29;;;;;;;3.65;2.08;;;;;;;2.35;40.20;99874.94;5003223;28;20098;-77
2022/04/18 00:28:54;;;;;;;2.85;1.35;;;;;;;2.36;40.29;99874.03;5001250;28;20074;-81
2022/04/18 00:31:19;;;;;;;3.70;1.58;;;;;;;2.33;40.45;99873.25;4995196;28;20255;-80
2022/04/18 00:33:44;;;;;;;4.10;2.20;;;;;;;2.29;40.35;99867.25;4996945;28;20099;-75
2022/04/18 00:36:08;;;;;;;2.35;1.63;;;;;;;2.28;40.79;99870.78;5013937;28;20407;-73
2022/04/18 00:38:33;;;;;;;7.40;2.65;;;;;;;2.27;40.76;99862.94;5028505;28;20040;-76
2022/04/18 00:40:58;;;;;;;3.53;2.15;;;;;;;2.24;40.87;99866.56;5011520;28;20045;-79
2022/04/18 00:43:39;;;;;;;3.35;1.55;;;;;;;2.27;41.27;99860.31;4996754;28;20520;-72
2022/04/18 00:46:04;;;;;;;2.05;1.80;;;;;;;2.22;40.78;99868.38;4979486;28;20045;-69
2022/04/18 00:48:29;;;;;;;4.57;1.85;;;;;;;2.21;40.87;99863.16;4985576;28;20187;-71
2022/04/18 00:50:54;;;;;;;5.55;1.58;;;;;;;2.18;41.21;99862.34;4956139;28;20128;-79
2022/04/18 00:53:19;;;;;;;4.63;1.60;;;;;;;2.19;40.97;99869.31;4950359;28;20078;-75
2022/04/18 00:55:44;;;;;;;2.10;1.40;;;;;;;2.15;41.09;99865.06;4947316;28;20132;-73
2022/04/18 00:58:10;;;;;;;8.43;2.05;;;;;;;2.15;41.10;99872.97;4944760;28;20053;-76
2022/04/18 01:00:35;;;;;;;5.70;1.95;;;;;;;2.20;40.96;99872.81;4964884;28;20056;-74
2022/04/18 01:03:00;;;;;;;2.33;1.60;;;;;;;2.10;41.23;99864.38;4951738;28;20711;-74
2022/04/18 01:05:24;;;;;;;1.58;1.40;;;;;;;2.08;41.51;99863.56;4968697;28;20498;-76
2022/04/18 01:07:50;;;;;;;6.00;1.98;;;;;;;2.07;41.25;99864.47;4969136;28;20042;-75
2022/04/18 01:10:15;;;;;;;6.88;1.65;;;;;;;2.05;41.28;99863.66;4966794;28;20034;-76
2022/04/18 01:12:41;;;;;;;3.05;2.05;;;;;;;2.05;41.67;99868.91;4968217;28;20049;-75
2022/04/18 01:15:14;;;;;;;3.45;1.63;;;;;;;2.04;41.37;99864.56;4983401;28;20053;-73
2022/04/18 01:17:59;;;;;;;2.72;1.27;;;;;;;2.04;41.61;99853.19;4945141;28;20062;-75
2022/04/18 01:20:42;;;;;;;2.55;1.83;;;;;;;2.03;41.43;99857.59;4947964;28;20045;-72
2022/04/18 01:23:25;;;;;;;1.52;0.95;;;;;;;2.02;41.55;99845.38;4919514;28;21519;-72
2022/04/18 01:28:58;;;;;;;1.40;1.15;;;;;;;2.00;41.59;99836.69;4950799;28;20056;-70
2022/04/18 01:31:33;;;;;;;4.00;1.95;;;;;;;1.97;41.88;99847.28;4906360;28;20129;-75
2022/04/18 01:33:58;;;;;;;2.75;2.05;;;;;;;1.95;41.69;99848.25;4932182;28;20061;-74
2022/04/18 01:36:24;;;;;;;5.50;1.85;;;;;;;1.91;41.97;99846.66;4956672;28;20076;-71
2022/04/18 01:38:50;;;;;;;6.85;2.25;;;;;;;1.89;42.11;99843.19;4954053;28;20054;-72
2022/04/18 01:41:15;;;;;;;4.18;1.73;;;;;;;1.83;42.33;99845.09;4936865;28;20045;-73
2022/04/18 01:43:40;;;;;;;3.05;1.80;;;;;;;1.80;42.33;99849.63;4936434;28;20045;-73
2022/04/18 01:46:05;;;;;;;3.80;1.40;;;;;;;1.77;42.44;99844.47;4951564;28;20037;-73
2022/04/18 01:48:30;;;;;;;2.15;1.48;;;;;;;1.78;42.55;99857.56;4935762;28;20080;-75
2022/04/18 01:50:55;;;;;;;2.72;1.83;;;;;;;1.75;42.67;99852.41;4918616;28;20042;-73
2022/04/18 01:53:21;;;;;;;2.30;1.67;;;;;;;1.70;42.89;99859.56;4915710;28;20050;-74
2022/04/18 01:55:46;;;;;;;2.33;1.35;;;;;;;1.69;42.67;99857.84;4976994;28;20049;-76
2022/04/18 01:58:11;;;;;;;2.30;1.45;;;;;;;1.68;42.92;99861.41;5007605;28;20041;-72
2022/04/18 02:00:36;;;;;;;6.70;1.92;;;;;;;1.66;43.06;99864.97;5001866;28;20124;-74
2022/04/18 02:03:01;;;;;;;1.85;1.42;;;;;;;1.66;42.97;99870.22;5005418;28;20132;-75
2022/04/18 02:05:26;;;;;;;4.35;1.83;;;;;;;1.64;42.91;99864.16;4999765;28;20105;-80
2022/04/18 02:07:50;;;;;;;1.90;1.77;;;;;;;1.63;43.16;99854.56;4997998;28;20053;-73
2022/04/18 02:10:15;;;;;;;2.90;1.90;;;;;;;1.60;43.21;99863.38;4999978;28;20045;-75
2022/04/18 02:12:40;;;;;;;2.83;1.67;;;;;;;1.59;42.99;99866.06;5000737;28;20052;-77
2022/04/18 02:15:07;;;;;;;2.22;2.03;;;;;;;1.59;43.55;99859.03;4976743;28;20060;-75
2022/04/18 02:17:39;;;;;;;4.97;1.98;;;;;;;1.60;43.54;99857.28;4993016;28;20443;-75
2022/04/18 02:20:05;;;;;;;3.50;1.63;;;;;;;1.60;43.31;99865.16;4977203;28;20450;-77
2022/04/18 02:22:30;;;;;;;1.80;1.40;;;;;;;1.59;43.22;99855.53;4977528;28;20033;-76
2022/04/18 02:24:58;;;;;;;3.20;2.15;;;;;;;1.61;43.57;99859.00;4991329;28;20049;-77
2022/04/18 02:27:23;;;;;;;2.53;1.77;;;;;;;1.59;43.20;99860.81;4975921;28;20042;-76
2022/04/18 02:29:48;;;;;;;7.65;4.32;;;;;;;1.57;43.68;99860.88;4993957;28;20037;-75
2022/04/18 02:34:56;;;;;;;4.47;2.03;;;;;;;1.56;43.60;99856.53;4991175;28;20136;-73
2022/04/18 02:37:21;;;;;;;1.83;1.25;;;;;;;1.55;43.79;99854.81;4992318;28;20607;-74
2022/04/18 02:39:46;;;;;;;3.17;1.75;;;;;;;1.57;43.62;99858.25;4994074;28;20045;-73
2022/04/18 02:42:11;;;;;;;2.00;1.73;;;;;;;1.59;43.66;99861.66;4994186;28;20411;-65
2022/04/18 02:44:38;;;;;;;5.50;2.75;;;;;;;1.60;43.90;99858.13;4994171;28;20033;-66
2022/04/18 02:47:02;;;;;;;3.50;1.75;;;;;;;1.61;44.14;99859.00;4996367;28;20049;-66
2022/04/18 02:49:27;;;;;;;4.32;1.65;;;;;;;1.60;44.07;99858.13;4998018;28;20038;-66
2022/04/18 02:51:53;;;;;;;5.63;1.42;;;;;;;1.65;43.86;99865.88;5014145;28;20053;-62
2022/04/18 02:54:20;;;;;;;2.20;1.52;;;;;;;1.74;43.99;99863.81;5004601;28;20073;-71
2022/04/18 02:56:44;;;;;;;1.65;1.42;;;;;;;1.88;43.75;99863.38;5002516;28;20049;-70
2022/04/18 02:59:09;;;;;;;3.38;2.03;;;;;;;2.01;43.59;99858.56;4985597;28;20474;-71
2022/04/18 03:01:35;;;;;;;4.47;2.53;;;;;;;2.15;43.54;99857.19;5004047;28;20059;-67
2022/04/18 03:04:01;;;;;;;5.38;2.13;;;;;;;2.32;43.23;99854.00;4996135;28;20065;-65
2022/04/18 03:06:26;;;;;;;7.53;2.40;;;;;;;2.45;42.91;99850.03;4995817;28;20048;-64
2022/04/18 03:08:51;;;;;;;3.88;2.03;;;;;;;2.55;42.92;99848.78;4995185;28;20041;-64
2022/04/18 03:11:16;;;;;;;3.28;1.85;;;;;;;2.67;42.58;99849.25;4977374;28;20095;-64
2022/04/18 03:13:44;;;;;;;6.60;2.05;;;;;;;2.82;42.55;99848.72;4993828;28;20041;-63
2022/04/18 03:16:15;;;;;;;4.47;2.30;;;;;;;2.99;42.14;99850.69;4995115;28;20044;-63
2022/04/18 03:18:40;;;;;;;2.05;1.58;;;;;;;3.08;42.14;99848.56;4993749;28;20298;-63
2022/04/18 03:21:06;;;;;;;1.80;1.52;;;;;;;3.21;41.71;99855.09;4993886;28;20843;-63
2022/04/18 03:23:33;;;;;;;6.22;2.60;;;;;;;3.33;41.73;99845.00;4978140;28;20041;-62
2022/04/18 03:26:37;;;;;;;4.18;2.40;;;;;;;3.53;41.62;99855.63;4907519;28;20043;-66
2022/04/18 03:29:10;;;;;;;2.53;1.83;;;;;;;3.68;41.07;99846.25;4911133;28;20043;-63
2022/04/18 03:31:36;;;;;;;2.22;1.80;;;;;;;3.80;41.43;99851.91;4889811;28;20090;-65
2022/04/18 03:34:01;;;;;;;4.05;1.88;;;;;;;3.94;40.84;99851.34;4898090;28;20051;-64
2022/04/18 03:41:54;;;;;;;3.72;2.10;;;;;;;4.45;40.72;99850.91;4895720;29;20053;-64
2022/04/18 03:44:18;;;;;;;6.93;2.67;;;;;;;4.59;40.52;99845.91;4910255;29;20058;-64
2022/04/18 03:46:43;;;;;;;3.15;1.52;;;;;;;4.73;40.58;99840.88;4906211;29;20627;-66
2022/04/18 03:49:08;;;;;;;5.05;3.13;;;;;;;4.84;40.01;99845.69;4897809;29;20051;-65
2022/04/18 03:51:36;;;;;;;4.32;2.13;;;;;;;4.97;40.35;99846.81;4883236;28;20055;-69
2022/04/18 03:54:01;;;;;;;5.20;2.35;;;;;;;5.09;40.42;99845.41;4890100;28;20058;-67
2022/04/18 03:56:29;;;;;;;4.88;2.33;;;;;;;5.24;40.03;99841.19;4914389;28;20043;-68
2022/04/18 03:59:23;;;;;;;9.65;3.47;;;;;;;5.40;39.69;99843.06;4983083;28;20054;-67
2022/04/18 04:01:58;;;;;;;6.85;2.92;;;;;;;5.58;39.83;99843.09;5010067;28;20041;-66
2022/04/18 04:04:25;;;;;;;3.33;2.08;;;;;;;5.72;39.81;99844.16;4987949;28;20057;-69
2022/04/18 04:06:51;;;;;;;6.40;2.92;;;;;;;5.87;39.25;99831.13;5001402;28;20087;-68
2022/04/18 04:09:17;;;;;;;7.00;2.60;;;;;;;6.03;38.67;99842.69;5015837;28;20102;-68
2022/04/18 04:11:43;;;;;;;6.43;2.88;;;;;;;6.18;38.65;99837.50;5017162;28;20041;-69
2022/04/18 04:14:08;;;;;;;5.88;2.75;;;;;;;6.34;38.71;99848.16;5016010;28;20299;-69
2022/04/18 04:16:32;;;;;;;5.95;2.85;;;;;;;6.53;38.40;99838.34;5015777;28;20086;-66
2022/04/18 04:18:59;;;;;;;6.70;2.95;;;;;;;6.75;38.37;99838.06;5016863;28;20421;-66
2022/04/18 04:21:23;;;;;;;5.55;3.33;;;;;;;6.97;38.20;99839.56;5015993;28;20049;-65
2022/04/18 04:23:52;;;;;;;6.15;2.97;;;;;;;7.15;38.09;99836.78;4998193;28;20051;-65
2022/04/18 04:26:40;;;;;;;5.18;3.30;;;;;;;7.34;37.63;99828.66;5004753;28;20156;-65
2022/04/18 04:29:07;;;;;;;5.68;3.33;;;;;;;7.55;37.92;99832.81;4997686;28;20554;-69
2022/04/18 04:31:38;;;;;;;9.15;3.40;;;;;;;7.79;37.05;99827.06;5010773;28;20107;-66
2022/04/18 04:34:03;;;;;;;4.80;3.13;;;;;;;8.05;37.45;99822.88;4996154;28;20044;-71
2022/04/18 04:36:32;;;;;;;5.57;3.10;;;;;;;8.25;36.98;99825.22;4994723;28;20045;-69
2022/04/18 04:38:57;;;;;;;8.85;3.63;;;;;;;8.38;36.88;99816.47;4978307;28;20115;-65
2022/04/18 04:41:39;;;;;;;8.65;3.40;;;;;;;8.56;37.28;99813.66;4995454;28;20060;-65
2022/04/18 04:44:07;;;;;;;8.55;3.78;;;;;;;8.74;36.96;99818.69;4996684;28;20124;-66
2022/04/18 04:46:51;;;;;;;6.82;3.67;;;;;;;8.93;36.57;99815.75;4995950;28;20037;-66
2022/04/18 04:49:17;;;;;;;6.28;3.90;;;;;;;9.00;36.78;99818.91;4994520;28;20083;-65
2022/04/18 04:51:57;;;;;;;12.93;3.88;;;;;;;9.12;36.46;99817.28;4994986;28;20045;-65
2022/04/18 04:54:23;;;;;;;11.57;3.83;;;;;;;9.30;36.61;99806.34;4994607;28;20060;-65
2022/04/18 04:56:48;;;;;;;8.55;4.05;;;;;;;9.37;36.48;99815.63;4996898;28;20045;-65
2022/04/18 04:59:13;;;;;;;8.77;4.35;;;;;;;9.36;35.85;99824.59;4978204;28;20033;-64
2022/04/18 05:01:38;;;;;;;10.02;4.63;;;;;;;9.23;36.30;99814.81;4994295;28;20049;-67
2022/04/18 05:04:06;;;;;;;10.95;4.38;;;;;;;9.44;36.14;99816.09;5007675;28;20481;-66
2022/04/18 05:06:32;;;;;;;14.57;4.32;;;;;;;9.96;35.74;99821.53;5003092;28;20053;-68
2022/04/18 05:08:59;;;;;;;10.40;4.43;;;;;;;10.38;35.06;99806.34;5006189;28;20045;-67
2022/04/18 05:11:26;;;;;;;10.05;4.63;;;;;;;10.75;34.54;99810.84;5006801;28;20139;-67
2022/04/18 05:13:53;;;;;;;9.23;4.50;;;;;;;11.15;33.91;99814.25;4998845;28;20428;-68
2022/04/18 05:16:39;;;;;;;10.43;4.95;;;;;;;11.34;33.57;99812.91;5015421;28;20119;-69
2022/04/18 05:19:27;;;;;;;11.77;4.60;;;;;;;11.52;32.99;99811.56;5015850;28;20048;-66
2022/04/18 05:22:08;;;;;;;12.38;4.50;;;;;;;11.70;33.13;99806.72;4984152;28;20036;-67
2022/04/18 05:24:34;;;;;;;12.07;4.43;;;;;;;11.91;32.53;99815.84;4984887;28;20041;-67
2022/04/18 05:27:00;;;;;;;8.90;4.68;;;;;;;12.07;32.08;99810.22;4999926;28;20056;-67
2022/04/18 05:29:25;;;;;;;8.18;4.80;;;;;;;11.97;31.65;99802.88;5004410;28;20045;-67
2022/04/18 05:31:50;;;;;;;14.77;5.10;;;;;;;12.21;32.23;99810.03;5016411;28;20052;-65
2022/04/18 05:34:15;;;;;;;13.00;4.82;;;;;;;12.64;31.77;99810.28;4998391;28;20052;-68
2022/04/18 05:36:52;;;;;;;11.15;4.57;;;;;;;13.20;30.66;99813.91;4980273;28;20408;-68
2022/04/18 05:39:49;;;;;;;9.18;4.50;;;;;;;13.29;29.86;99807.81;4994467;28;20119;-68
2022/04/18 05:42:15;;;;;;;8.73;4.22;;;;;;;13.34;30.06;99808.28;4994008;28;20045;-68
2022/04/18 05:44:41;;;;;;;10.30;4.65;;;;;;;13.52;29.47;99810.47;4993709;28;20041;-68
2022/04/18 05:47:06;;;;;;;6.65;4.15;;;;;;;13.63;28.97;99807.75;4961393;28;20059;-68
2022/04/18 05:49:31;;;;;;;5.88;3.90;;;;;;;13.61;28.91;99804.34;4996835;28;20116;-69
2022/04/18 05:51:59;;;;;;;9.27;4.22;;;;;;;13.59;28.77;99812.50;4982634;28;20491;-68
2022/04/18 05:54:25;;;;;;;8.25;4.22;;;;;;;13.68;28.32;99809.06;4994666;28;20561;-68
2022/04/18 05:56:56;;;;;;;6.25;4.22;;;;;;;13.53;29.14;99805.00;4994817;28;20041;-68
2022/04/18 05:59:33;;;;;;;7.20;3.92;;;;;;;13.60;28.32;99806.19;4977166;28;20103;-67
2022/04/18 06:02:07;;;;;;;5.80;3.55;;;;;;;14.13;28.37;99811.63;5002539;28;20145;-71
2022/04/18 06:04:34;;;;;;;6.18;3.47;;;;;;;14.38;27.28;99807.72;5015249;28;20053;-67
2022/04/18 06:07:25;;;;;;;4.25;2.33;;;;;;;14.80;27.02;99816.66;4918786;28;20121;-69
2022/04/18 06:10:11;;;;;;;13.10;3.63;;;;;;;14.57;26.89;99807.91;4902931;28;20047;-67
2022/04/18 06:12:37;;;;;;;4.22;3.55;;;;;;;14.63;26.87;99812.75;4903083;28;20051;-66
2022/04/18 06:15:03;;;;;;;5.18;3.35;;;;;;;15.13;26.44;99826.31;4902422;28;20066;-67
2022/04/18 06:17:28;;;;;;;6.20;3.40;;;;;;;15.67;25.72;99823.31;4934483;28;20047;-70
2022/04/18 06:19:57;;;;;;;5.78;3.92;;;;;;;16.14;25.60;99805.53;4920912;28;20067;-69
2022/04/18 06:22:22;;;;;;;6.47;4.22;;;;;;;16.39;24.86;99809.50;4922178;28;20042;-70
2022/04/18 06:24:48;;;;;;;4.35;3.10;;;;;;;16.40;24.74;99803.13;4924525;28;20177;-69
2022/04/18 06:27:20;;;;;;;7.50;4.03;;;;;;;16.27;24.69;99799.88;4924762;28;20051;-65
2022/04/18 06:29:47;;;;;;;6.93;3.70;;;;;;;16.87;24.71;99792.44;4941868;28;20551;-66
2022/04/18 06:32:13;;;;;;;3.92;2.65;;;;;;;17.65;24.35;99805.47;4925307;28;20051;-65
2022/04/18 06:34:38;;;;;;;7.10;5.35;;;;;;;17.31;23.28;99801.66;4923511;28;20042;-68
2022/04/18 06:37:14;;;;;;;6.93;4.38;;;;;;;16.74;23.64;99798.16;4922067;28;20055;-65
2022/04/18 06:39:44;;;;;;;12.07;3.78;;;;;;;17.00;23.73;99798.38;4921810;28;20038;-67
2022/04/18 06:42:13;;;;;;;6.20;2.90;;;;;;;17.72;23.82;99808.41;4922808;28;20441;-70
2022/04/18 06:44:51;;;;;;;9.65;4.07;;;;;;;18.19;22.85;99800.97;4982707;28;20538;-65
2022/04/18 06:47:18;;;;;;;7.78;3.95;;;;;;;17.67;22.45;99814.28;5000560;28;20648;-66
2022/04/18 06:49:59;;;;;;;6.47;3.30;;;;;;;17.58;22.96;99815.16;4999414;28;20360;-66
2022/04/18 06:52:46;;;;;;;7.73;3.97;;;;;;;18.19;23.24;99819.88;5017446;28;20051;-67
2022/04/18 06:55:25;;;;;;;7.75;4.35;;;;;;;18.82;22.31;99807.13;5017582;28;20506;-68
2022/04/18 06:57:51;;;;;;;5.63;3.88;;;;;;;19.72;21.57;99807.63;5016244;28;20037;-68
2022/04/18 07:00:16;;;;;;;9.23;4.43;;;;;;;20.24;21.17;99802.81;4999384;28;20047;-68
2022/04/18 07:02:50;;;;;;;6.57;3.78;;;;;;;21.16;20.27;99810.59;4999790;28;20029;-65
2022/04/18 07:05:15;;;;;;;5.57;3.92;;;;;;;21.63;19.55;99802.47;5016133;28;20114;-67
2022/04/18 07:07:40;;;;;;;7.05;4.93;;;;;;;21.97;19.14;99804.84;4999463;28;20041;-66
2022/04/18 07:10:05;;;;;;;5.70;3.47;;;;;;;21.67;18.94;99811.13;4999693;28;20049;-66
2022/04/18 07:12:30;;;;;;;6.65;4.18;;;;;;;21.86;19.17;99805.25;4999772;28;20411;-67
2022/04/18 07:14:58;;;;;;;9.23;4.15;;;;;;;21.59;18.65;99803.84;5017763;28;20064;-67
2022/04/18 07:17:23;;;;;;;5.47;3.75;;;;;;;21.34;19.34;99805.81;5016326;28;20619;-67
2022/04/18 07:19:49;;;;;;;5.10;3.70;;;;;;;21.07;18.84;99795.38;4999681;28;20448;-66
2022/04/18 07:22:17;;;;;;;7.57;3.90;;;;;;;20.14;19.35;99796.72;4983618;28;20442;-66
2022/04/18 07:24:42;;;;;;;6.80;3.72;;;;;;;20.11;20.04;99788.91;4999612;28;20532;-67
2022/04/18 07:27:07;;;;;;;7.07;3.95;;;;;;;20.31;19.71;99799.25;5016074;28;20496;-66
2022/04/18 07:29:42;;;;;;;7.93;3.88;;;;;;;20.64;19.72;99799.31;4999190;28;20507;-66
2022/04/18 07:32:08;;;;;;;8.15;3.38;;;;;;;20.46;18.97;99788.66;4998065;28;20105;-66
2022/04/18 07:34:34;;;;;;;4.60;3.10;;;;;;;20.44;19.21;99790.66;4999362;28;20053;-65
2022/04/18 07:37:00;;;;;;;4.47;3.53;;;;;;;20.47;19.51;99789.50;4999646;28;20036;-67
2022/04/18 07:39:25;;;;;;;10.73;3.40;;;;;;;20.63;18.89;99790.34;5017679;28;20045;-65
2022/04/18 07:41:52;;;;;;;6.30;3.35;;;;;;;20.96;18.74;99787.59;4999805;28;20044;-67
2022/04/18 07:44:20;;;;;;;4.15;2.90;;;;;;;22.00;18.41;99784.69;4999643;28;20682;-70
2022/04/18 07:46:46;;;;;;;8.98;3.33;;;;;;;22.40;17.41;99786.25;4999636;28;20178;-68
2022/04/18 07:49:19;;;;;;;6.40;3.70;;;;;;;23.24;17.19;99784.28;5016095;28;20103;-65
2022/04/18 07:51:47;;;;;;;8.77;3.20;;;;;;;23.72;16.82;99793.75;4999785;28;20051;-65
2022/04/18 07:54:32;;;;;;;6.43;3.55;;;;;;;23.40;16.35;99784.94;5017086;28;20080;-65
2022/04/18 07:56:58;;;;;;;7.22;3.92;;;;;;;22.98;16.65;99779.28;5000698;28;20057;-65
2022/04/18 07:59:34;;;;;;;7.05;3.72;;;;;;;23.21;16.97;99785.50;4999958;28;20045;-65
2022/04/18 08:01:59;;;;;;;9.55;4.05;;;;;;;22.42;16.77;99778.78;5015892;28;20051;-65
2022/04/18 08:05:02;;;;;;;6.20;3.80;;;;;;;23.13;16.73;99777.44;4974952;28;20524;-70
2022/04/18 08:07:39;;;;;;;13.02;4.65;;;;;;;23.15;16.26;99776.19;4959588;28;20084;-70
2022/04/18 08:10:05;;;;;;;7.53;4.18;;;;;;;22.62;16.37;99795.41;4958572;28;20057;-70
2022/04/18 08:12:31;;;;;;;4.10;3.15;;;;;;;22.04;16.16;99786.00;4958503;28;20038;-71
2022/04/18 08:15:15;;;;;;;5.57;3.42;;;;;;;21.64;16.64;99770.78;4944671;28;20521;-70
2022/04/18 08:17:39;;;;;;;6.63;4.03;;;;;;;21.61;16.46;99798.25;4960035;28;20567;-72
2022/04/18 08:20:05;;;;;;;7.82;3.22;;;;;;;21.21;16.49;99775.69;4959368;28;20042;-70
2022/04/18 08:22:30;;;;;;;7.47;3.53;;;;;;;20.82;17.22;99772.88;4959871;28;20134;-70
2022/04/18 08:25:21;;;;;;;5.15;3.70;;;;;;;21.45;17.16;99765.75;4977447;28;20049;-70
2022/04/18 08:28:04;;;;;;;5.65;3.30;;;;;;;22.16;16.61;99772.84;4974688;28;20091;-70
2022/04/18 08:30:33;;;;;;;5.47;3.80;;;;;;;22.09;16.06;99773.59;4958116;28;20077;-70
2022/04/18 08:33:23;;;;;;;4.45;3.45;;;;;;;21.65;16.46;99751.59;4958161;28;20070;-71
2022/04/18 08:35:48;;;;;;;6.13;3.75;;;;;;;21.62;16.73;99770.09;4978218;28;20052;-71
2022/04/18 08:38:13;;;;;;;9.10;3.90;;;;;;;21.46;16.69;99760.16;4981997;28;20431;-71
2022/04/18 08:41:05;;;;;;;7.82;3.42;;;;;;;21.77;17.20;99751.19;5013112;28;20507;-72
2022/04/18 08:43:30;;;;;;;7.55;4.05;;;;;;;22.02;16.89;99744.59;5014790;28;20415;-69
2022/04/18 08:45:56;;;;;;;7.78;4.30;;;;;;;22.75;16.69;99744.88;5016473;28;20045;-70
2022/04/18 08:53:55;;;;;;;5.57;3.72;;;;;;;22.84;15.54;99750.22;4922485;28;20449;-68
2022/04/18 08:56:20;;;;;;;10.07;4.10;;;;;;;22.03;16.00;99746.28;4922127;28;20046;-69
2022/04/18 08:58:48;;;;;;;6.50;3.50;;;;;;;21.83;16.35;99737.75;4938237;28;20107;-70
2022/04/18 09:01:16;;;;;;;4.72;2.80;;;;;;;22.78;16.21;99740.94;4938383;28;20042;-70
2022/04/18 09:04:10;;;;;;;6.27;3.30;;;;;;;23.17;16.08;99735.22;4878088;29;20193;-70
2022/04/18 09:06:40;;;;;;;8.25;3.58;;;;;;;23.22;15.22;99743.66;4894196;29;20458;-69
2022/04/18 09:09:27;;;;;;;7.15;3.53;;;;;;;23.57;15.64;99738.50;4882327;29;20087;-68
2022/04/18 09:11:54;;;;;;;6.88;3.10;;;;;;;24.53;15.36;99729.88;4902052;29;20056;-69
2022/04/18 09:14:25;;;;;;;5.40;3.33;;;;;;;24.07;14.40;99732.97;4863472;29;20173;-70
2022/04/18 09:16:50;;;;;;;6.80;3.30;;;;;;;22.89;15.42;99720.59;4894009;29;20152;-68
2022/04/18 09:19:37;;;;;;;11.05;4.15;;;;;;;22.62;16.02;99720.16;4900837;29;20146;-69
2022/04/18 09:22:06;;;;;;;7.05;3.47;;;;;;;22.88;15.75;99708.03;4915873;29;20070;-68
2022/04/18 09:24:36;;;;;;;6.68;3.88;;;;;;;22.99;15.87;99721.16;4915706;29;20050;-68
2022/04/18 09:27:13;;;;;;;6.13;3.80;;;;;;;23.84;15.29;99724.16;4931974;28;20055;-69
2022/04/18 09:29:40;;;;;;;9.15;4.20;;;;;;;23.77;14.93;99720.50;4915634;29;20047;-69
2022/04/18 09:32:12;;;;;;;7.43;3.45;;;;;;;23.49;15.01;99707.59;4915834;29;20066;-69
2022/04/18 09:35:02;;;;;;;4.47;3.47;;;;;;;24.08;15.67;99718.31;4915639;28;20585;-69
2022/04/18 09:37:33;;;;;;;7.40;3.67;;;;;;;24.30;14.53;99694.66;4915542;29;20078;-69
2022/04/18 09:39:58;;;;;;;4.90;3.88;;;;;;;24.15;14.88;99702.88;4922611;28;20419;-69
2022/04/18 09:42:25;;;;;;;10.00;3.70;;;;;;;25.09;14.71;99699.84;4980501;28;20423;-69
2022/04/18 09:45:08;;;;;;;8.60;4.10;;;;;;;25.76;13.72;99701.84;4997482;28;20048;-68
2022/04/18 09:47:35;;;;;;;4.95;3.30;;;;;;;26.41;13.51;99690.19;4997850;28;20400;-68
2022/04/18 09:50:58;;;;;;;8.98;4.43;;;;;;;27.25;13.19;99697.63;4997042;28;20415;-70
2022/04/18 09:53:21;;;;;;;7.50;3.72;;;;;;;27.99;12.84;99700.66;4997389;28;20051;-69
2022/04/18 09:55:54;;;;;;;8.57;3.63;;;;;;;28.60;12.01;99690.94;5018684;28;20048;-68
2022/04/18 09:58:19;;;;;;;6.88;3.60;;;;;;;29.32;12.17;99692.94;5019320;28;20081;-68
2022/04/18 10:00:44;;;;;;;6.10;4.00;;;;;;;29.93;11.51;99686.41;5000810;28;20094;-69
2022/04/18 10:03:10;;;;;;;6.43;4.20;;;;;;;30.04;11.47;99693.06;5000851;28;20052;-67
2022/04/18 10:05:35;;;;;;;7.10;3.53;;;;;;;30.45;11.29;99684.78;5019148;28;20114;-70
2022/04/18 10:08:03;;;;;;;9.05;3.90;;;;;;;31.05;10.89;99703.81;5001540;28;20041;-69
2022/04/18 10:10:28;;;;;;;6.28;3.80;;;;;;;30.76;10.91;99691.03;5018723;28;20099;-70
2022/04/18 10:12:53;;;;;;;9.27;4.35;;;;;;;29.94;11.02;99677.94;5005720;28;20053;-68
2022/04/18 10:15:18;;;;;;;5.10;3.47;;;;;;;29.19;11.57;99709.56;5001035;28;20040;-67
2022/04/18 10:17:43;;;;;;;4.78;3.25;;;;;;;27.12;12.26;99704.00;5018481;28;20448;-68
2022/04/18 10:20:32;;;;;;;5.03;3.50;;;;;;;23.88;14.08;99700.94;5018441;28;20507;-66
2022/04/18 10:23:15;;;;;;;6.00;3.95;;;;;;;20.59;16.26;99685.22;5000426;28;20124;-66
2022/04/18 10:25:46;;;;;;;5.13;2.90;;;;;;;17.91;18.81;99680.69;5017406;28;20048;-67
2022/04/18 10:28:18;;;;;;;6.65;3.22;;;;;;;16.75;19.80;99675.16;5018557;28;20049;-68
2022/04/18 10:30:57;;;;;;;3.67;3.00;;;;;;;16.06;20.82;99678.13;5018790;28;20040;-68
2022/04/18 10:33:23;;;;;;;7.25;3.35;;;;;;;15.54;21.18;99691.00;5001090;28;20131;-67
2022/04/18 10:35:52;;;;;;;6.72;3.50;;;;;;;15.24;20.76;99675.81;5018621;28;20045;-68
2022/04/18 10:38:20;;;;;;;5.03;3.65;;;;;;;14.33;22.23;99678.56;5018999;28;20060;-70
2022/04/18 10:40:45;;;;;;;6.80;3.60;;;;;;;13.41;23.02;99669.41;5000541;28;20047;-69
2022/04/18 10:43:13;;;;;;;5.60;3.10;;;;;;;12.88;23.89;99666.56;5018159;28;20048;-70
2022/04/18 10:45:38;;;;;;;5.22;3.67;;;;;;;12.68;24.21;99678.84;5000251;28;20043;-69
2022/04/18 10:48:06;;;;;;;2.92;2.60;;;;;;;12.57;24.35;99672.66;5017883;28;20087;-73
2022/04/18 10:50:48;;;;;;;9.88;3.30;;;;;;;12.52;24.70;99667.69;5001810;28;20140;-73
2022/04/18 10:53:22;;;;;;;8.20;3.45;;;;;;;12.09;25.27;99666.63;4997371;28;20048;-72
2022/04/18 10:55:52;;;;;;;4.00;3.00;;;;;;;12.13;25.21;99663.63;5018132;28;20040;-72
2022/04/18 10:58:22;;;;;;;4.90;2.78;;;;;;;11.74;25.21;99672.81;5019706;28;20090;-71
2022/04/18 11:00:54;;;;;;;4.68;2.80;;;;;;;11.53;25.67;99663.75;5026902;28;20531;-70
2022/04/18 11:03:43;;;;;;;5.32;2.97;;;;;;;11.47;25.74;99664.25;4992151;28;20123;-68
2022/04/18 11:06:18;;;;;;;4.03;2.72;;;;;;;11.23;26.53;99664.25;5014536;28;20048;-69
2022/04/18 11:08:57;;;;;;;;;;;;;;;11.43;25.21;99654.75;5006432;28;20041;-69
2022/04/18 11:11:22;;;;;;;5.75;2.95;;;;;;;11.29;26.53;99663.78;5020847;28;19921;-72
2022/04/18 11:13:48;;;;;;;4.97;3.33;;;;;;;11.21;26.70;99661.69;5021006;28;20045;-71
2022/04/18 11:16:22;;;;;;;6.25;2.92;;;;;;;11.17;26.87;99656.69;5023321;28;20063;-72
2022/04/18 11:19:06;;;;;;;5.68;2.92;;;;;;;11.15;26.47;99653.28;5028531;28;20040;-69
2022/04/18 11:24:36;;;;;;;5.72;2.83;;;;;;;11.12;26.95;99649.03;5028445;28;20044;-69
2022/04/18 11:27:07;;;;;;;6.63;2.70;;;;;;;11.31;26.60;99653.00;5026204;28;20041;-70
2022/04/18 11:29:32;;;;;;;9.30;2.20;;;;;;;11.38;26.06;99648.91;5034354;28;20041;-69
2022/04/18 11:31:58;;;;;;;3.78;2.08;;;;;;;11.23;26.24;99650.91;5018754;28;20048;-71
2022/04/18 11:34:27;;;;;;;8.15;3.55;;;;;;;10.91;26.75;99651.44;5017520;28;20036;-70
2022/04/18 11:36:55;;;;;;;10.27;2.72;;;;;;;10.68;27.23;99646.06;5017347;28;20051;-68
2022/04/18 11:39:20;;;;;;;2.47;1.98;;;;;;;10.69;26.93;99640.63;5017824;28;20041;-69
2022/04/18 11:41:45;;;;;;;4.88;2.92;;;;;;;10.58;27.26;99640.56;5017974;28;20458;-70
2022/04/18 11:44:10;;;;;;;4.00;2.78;;;;;;;10.53;28.15;99638.19;5018547;28;20051;-69
2022/04/18 11:46:35;;;;;;;3.45;2.75;;;;;;;10.50;27.51;99638.41;5017699;28;20040;-70
2022/04/18 11:48:59;;;;;;;5.45;2.65;;;;;;;10.60;28.13;99638.63;5016133;28;20044;-69
2022/04/18 11:51:38;;;;;;;4.38;2.80;;;;;;;10.68;27.16;99627.41;5015969;28;20037;-70
2022/04/18 11:54:03;;;;;;;2.58;2.25;;;;;;;10.69;27.33;99629.97;5024738;28;20492;-69
2022/04/18 11:56:28;;;;;;;7.15;3.22;;;;;;;10.82;27.00;99622.78;5010358;28;20049;-68
2022/04/18 11:58:53;;;;;;;4.00;2.00;;;;;;;10.97;27.28;99634.13;5018750;28;20037;-68
2022/04/18 12:06:45;;;;;;;5.65;2.85;;;;;;;10.64;27.32;99620.59;5000268;28;20051;-71
2022/04/18 12:09:12;;;;;;;4.38;2.42;;;;;;;10.67;27.30;99615.03;5006433;28;20141;-71
2022/04/18 12:11:37;;;;;;;12.70;3.20;;;;;;;10.62;27.48;99622.50;5015704;28;20563;-66
2022/04/18 12:14:02;;;;;;;5.75;2.65;;;;;;;10.59;27.80;99609.41;5014749;28;20720;-67